sensor_id;sensor_type;location;lat;lon;timestamp;P1;durP1;ratioP1;P2;durP2;ratioP2
42598;SDS011;28225;42.714;23.860;2022-07-10T00:01:23;12.13;;;9.90;;
42598;SDS011;28225;42.714;23.860;2022-07-10T00:03:48;14.23;;;10.05;;
42598;SDS011;28225;42.714;23.860;2022-07-10T00:06:15;14.73;;;8.63;;
42598;SDS011;28225;42.714;23.860;2022-07-10T00:08:41;13.57;;;8.98;;
42598;SDS011;28225;42.714;23.860;2022-07-10T00:11:07;16.45;;;9.25;;
42598;SDS011;28225;42.714;23.860;2022-07-10T00:13:33;10.10;;;8.50;;
42598;SDS011;28225;42.714;23.860;2022-07-10T00:15:59;9.98;;;8.32;;
42598;SDS011;28225;42.714;23.860;2022-07-10T00:18:27;11.68;;;8.73;;
42598;SDS011;28225;42.714;23.860;2022-07-10T00:20:55;13.95;;;8.45;;
42598;SDS011;28225;42.714;23.860;2022-07-10T00:23:21;11.48;;;8.57;;
42598;SDS011;28225;42.714;23.860;2022-07-10T00:25:46;10.55;;;8.80;;
42598;SDS011;28225;42.714;23.860;2022-07-10T00:28:12;11.35;;;10.00;;
42598;SDS011;28225;42.714;23.860;2022-07-10T00:30:37;12.98;;;10.80;;
42598;SDS011;28225;42.714;23.860;2022-07-10T00:33:03;22.65;;;9.18;;
42598;SDS011;28225;42.714;23.860;2022-07-10T00:35:29;52.97;;;49.35;;
42598;SDS011;28225;42.714;23.860;2022-07-10T00:37:54;11.82;;;9.27;;
42598;SDS011;28225;42.714;23.860;2022-07-10T00:40:20;13.95;;;9.55;;
42598;SDS011;28225;42.714;23.860;2022-07-10T00:42:45;12.40;;;7.97;;
42598;SDS011;28225;42.714;23.860;2022-07-10T00:45:11;37.47;;;34.63;;
42598;SDS011;28225;42.714;23.860;2022-07-10T00:47:36;60.10;;;55.85;;
42598;SDS011;28225;42.714;23.860;2022-07-10T00:50:02;9.88;;;8.65;;
42598;SDS011;28225;42.714;23.860;2022-07-10T00:52:28;19.55;;;9.15;;
42598;SDS011;28225;42.714;23.860;2022-07-10T00:54:55;15.15;;;13.93;;
42598;SDS011;28225;42.714;23.860;2022-07-10T00:57:20;9.63;;;7.97;;
42598;SDS011;28225;42.714;23.860;2022-07-10T00:59:46;15.55;;;8.02;;
42598;SDS011;28225;42.714;23.860;2022-07-10T01:02:13;12.57;;;8.55;;
42598;SDS011;28225;42.714;23.860;2022-07-10T01:04:38;11.30;;;8.27;;
42598;SDS011;28225;42.714;23.860;2022-07-10T01:07:04;14.93;;;8.00;;
42598;SDS011;28225;42.714;23.860;2022-07-10T01:09:30;10.30;;;8.77;;
42598;SDS011;28225;42.714;23.860;2022-07-10T01:11:56;10.85;;;8.93;;
42598;SDS011;28225;42.714;23.860;2022-07-10T01:14:22;12.05;;;8.57;;
42598;SDS011;28225;42.714;23.860;2022-07-10T01:16:47;12.57;;;9.18;;
42598;SDS011;28225;42.714;23.860;2022-07-10T01:19:13;9.60;;;8.40;;
42598;SDS011;28225;42.714;23.860;2022-07-10T01:21:39;13.23;;;9.57;;
42598;SDS011;28225;42.714;23.860;2022-07-10T01:24:08;13.85;;;10.65;;
42598;SDS011;28225;42.714;23.860;2022-07-10T01:26:34;15.35;;;11.63;;
42598;SDS011;28225;42.714;23.860;2022-07-10T01:29:05;11.20;;;9.90;;
42598;SDS011;28225;42.714;23.860;2022-07-10T01:31:31;10.65;;;9.07;;
42598;SDS011;28225;42.714;23.860;2022-07-10T01:33:58;13.95;;;10.77;;
42598;SDS011;28225;42.714;23.860;2022-07-10T01:36:24;27.75;;;25.67;;
42598;SDS011;28225;42.714;23.860;2022-07-10T01:38:51;17.25;;;9.13;;
42598;SDS011;28225;42.714;23.860;2022-07-10T01:41:16;12.85;;;8.50;;
42598;SDS011;28225;42.714;23.860;2022-07-10T01:43:42;10.50;;;8.95;;
42598;SDS011;28225;42.714;23.860;2022-07-10T01:46:10;12.23;;;8.73;;
42598;SDS011;28225;42.714;23.860;2022-07-10T01:48:37;10.25;;;8.15;;
42598;SDS011;28225;42.714;23.860;2022-07-10T01:51:03;13.20;;;8.18;;
42598;SDS011;28225;42.714;23.860;2022-07-10T01:53:29;40.45;;;37.67;;
42598;SDS011;28225;42.714;23.860;2022-07-10T01:55:54;12.75;;;11.38;;
42598;SDS011;28225;42.714;23.860;2022-07-10T01:58:20;28.85;;;26.58;;
42598;SDS011;28225;42.714;23.860;2022-07-10T02:00:46;28.67;;;26.52;;
42598;SDS011;28225;42.714;23.860;2022-07-10T02:03:11;10.00;;;8.82;;
42598;SDS011;28225;42.714;23.860;2022-07-10T02:05:55;10.05;;;8.25;;
42598;SDS011;28225;42.714;23.860;2022-07-10T02:08:21;10.23;;;8.23;;
42598;SDS011;28225;42.714;23.860;2022-07-10T02:10:46;12.45;;;7.93;;
42598;SDS011;28225;42.714;23.860;2022-07-10T02:13:11;11.48;;;8.52;;
42598;SDS011;28225;42.714;23.860;2022-07-10T02:15:39;11.05;;;8.82;;
42598;SDS011;28225;42.714;23.860;2022-07-10T02:18:05;11.27;;;8.38;;
42598;SDS011;28225;42.714;23.860;2022-07-10T02:20:31;13.07;;;9.15;;
42598;SDS011;28225;42.714;23.860;2022-07-10T02:22:58;10.82;;;7.97;;
42598;SDS011;28225;42.714;23.860;2022-07-10T02:25:24;10.07;;;8.98;;
42598;SDS011;28225;42.714;23.860;2022-07-10T02:27:49;13.02;;;8.43;;
42598;SDS011;28225;42.714;23.860;2022-07-10T02:30:15;12.80;;;9.30;;
42598;SDS011;28225;42.714;23.860;2022-07-10T02:32:40;14.68;;;8.80;;
42598;SDS011;28225;42.714;23.860;2022-07-10T02:35:06;10.95;;;8.23;;
42598;SDS011;28225;42.714;23.860;2022-07-10T02:37:31;12.52;;;8.35;;
42598;SDS011;28225;42.714;23.860;2022-07-10T02:39:57;12.38;;;8.80;;
42598;SDS011;28225;42.714;23.860;2022-07-10T02:42:22;12.57;;;8.85;;
42598;SDS011;28225;42.714;23.860;2022-07-10T02:44:47;11.43;;;8.82;;
42598;SDS011;28225;42.714;23.860;2022-07-10T02:47:13;12.55;;;8.35;;
42598;SDS011;28225;42.714;23.860;2022-07-10T02:49:38;10.45;;;7.97;;
42598;SDS011;28225;42.714;23.860;2022-07-10T02:52:04;9.73;;;7.47;;
42598;SDS011;28225;42.714;23.860;2022-07-10T02:54:30;10.18;;;8.05;;
42598;SDS011;28225;42.714;23.860;2022-07-10T02:56:55;10.77;;;8.05;;
42598;SDS011;28225;42.714;23.860;2022-07-10T02:59:21;13.23;;;8.27;;
42598;SDS011;28225;42.714;23.860;2022-07-10T03:01:46;12.07;;;8.07;;
42598;SDS011;28225;42.714;23.860;2022-07-10T03:04:11;11.23;;;8.45;;
42598;SDS011;28225;42.714;23.860;2022-07-10T03:06:37;12.55;;;8.80;;
42598;SDS011;28225;42.714;23.860;2022-07-10T03:09:02;11.93;;;8.70;;
42598;SDS011;28225;42.714;23.860;2022-07-10T03:11:28;14.25;;;9.20;;
42598;SDS011;28225;42.714;23.860;2022-07-10T03:13:53;12.73;;;10.07;;
42598;SDS011;28225;42.714;23.860;2022-07-10T03:16:19;16.15;;;10.60;;
42598;SDS011;28225;42.714;23.860;2022-07-10T03:18:44;20.77;;;12.48;;
42598;SDS011;28225;42.714;23.860;2022-07-10T03:21:10;17.70;;;12.38;;
42598;SDS011;28225;42.714;23.860;2022-07-10T03:23:36;19.80;;;11.65;;
42598;SDS011;28225;42.714;23.860;2022-07-10T03:26:01;16.77;;;11.52;;
42598;SDS011;28225;42.714;23.860;2022-07-10T03:28:27;14.80;;;10.10;;
42598;SDS011;28225;42.714;23.860;2022-07-10T03:30:52;13.73;;;9.98;;
42598;SDS011;28225;42.714;23.860;2022-07-10T03:33:17;11.73;;;8.38;;
42598;SDS011;28225;42.714;23.860;2022-07-10T03:35:43;16.00;;;9.95;;
42598;SDS011;28225;42.714;23.860;2022-07-10T03:38:08;16.95;;;9.95;;
42598;SDS011;28225;42.714;23.860;2022-07-10T03:40:34;14.98;;;11.20;;
42598;SDS011;28225;42.714;23.860;2022-07-10T03:42:59;14.93;;;12.15;;
42598;SDS011;28225;42.714;23.860;2022-07-10T03:45:25;16.65;;;11.70;;
42598;SDS011;28225;42.714;23.860;2022-07-10T03:47:50;18.33;;;12.25;;
42598;SDS011;28225;42.714;23.860;2022-07-10T03:50:16;13.77;;;11.23;;
42598;SDS011;28225;42.714;23.860;2022-07-10T03:52:41;15.48;;;11.63;;
42598;SDS011;28225;42.714;23.860;2022-07-10T03:55:09;14.50;;;11.55;;
42598;SDS011;28225;42.714;23.860;2022-07-10T03:57:34;15.13;;;10.75;;
42598;SDS011;28225;42.714;23.860;2022-07-10T04:00:18;12.90;;;10.77;;
42598;SDS011;28225;42.714;23.860;2022-07-10T04:02:47;15.45;;;10.35;;
42598;SDS011;28225;42.714;23.860;2022-07-10T04:05:13;20.27;;;9.95;;
42598;SDS011;28225;42.714;23.860;2022-07-10T04:07:39;14.75;;;9.63;;
42598;SDS011;28225;42.714;23.860;2022-07-10T04:10:05;11.80;;;9.73;;
42598;SDS011;28225;42.714;23.860;2022-07-10T04:12:31;13.07;;;9.68;;
42598;SDS011;28225;42.714;23.860;2022-07-10T04:14:56;11.55;;;9.55;;
42598;SDS011;28225;42.714;23.860;2022-07-10T04:17:22;14.23;;;10.38;;
42598;SDS011;28225;42.714;23.860;2022-07-10T04:19:47;11.68;;;9.23;;
42598;SDS011;28225;42.714;23.860;2022-07-10T04:22:13;16.30;;;10.10;;
42598;SDS011;28225;42.714;23.860;2022-07-10T04:24:39;12.50;;;10.52;;
42598;SDS011;28225;42.714;23.860;2022-07-10T04:27:04;13.95;;;9.18;;
42598;SDS011;28225;42.714;23.860;2022-07-10T04:29:31;11.38;;;9.75;;
42598;SDS011;28225;42.714;23.860;2022-07-10T04:31:57;15.10;;;10.00;;
42598;SDS011;28225;42.714;23.860;2022-07-10T04:34:23;15.57;;;10.88;;
42598;SDS011;28225;42.714;23.860;2022-07-10T04:36:48;13.57;;;9.35;;
42598;SDS011;28225;42.714;23.860;2022-07-10T04:39:13;11.73;;;9.57;;
42598;SDS011;28225;42.714;23.860;2022-07-10T04:41:39;14.20;;;10.68;;
42598;SDS011;28225;42.714;23.860;2022-07-10T04:56:15;13.93;;;11.63;;
42598;SDS011;28225;42.714;23.860;2022-07-10T04:58:40;15.05;;;10.80;;
42598;SDS011;28225;42.714;23.860;2022-07-10T05:01:06;13.82;;;10.63;;
42598;SDS011;28225;42.714;23.860;2022-07-10T05:03:32;16.88;;;11.85;;
42598;SDS011;28225;42.714;23.860;2022-07-10T05:05:57;15.13;;;11.55;;
42598;SDS011;28225;42.714;23.860;2022-07-10T05:08:23;16.95;;;11.32;;
42598;SDS011;28225;42.714;23.860;2022-07-10T05:10:48;14.07;;;11.13;;
42598;SDS011;28225;42.714;23.860;2022-07-10T05:13:14;15.98;;;11.95;;
42598;SDS011;28225;42.714;23.860;2022-07-10T05:15:39;27.48;;;12.68;;
42598;SDS011;28225;42.714;23.860;2022-07-10T05:18:05;16.85;;;12.25;;
42598;SDS011;28225;42.714;23.860;2022-07-10T05:20:30;16.02;;;11.77;;
42598;SDS011;28225;42.714;23.860;2022-07-10T05:22:56;18.83;;;13.25;;
42598;SDS011;28225;42.714;23.860;2022-07-10T05:25:21;17.77;;;13.15;;
42598;SDS011;28225;42.714;23.860;2022-07-10T05:27:47;17.73;;;13.65;;
42598;SDS011;28225;42.714;23.860;2022-07-10T05:30:13;21.95;;;13.95;;
42598;SDS011;28225;42.714;23.860;2022-07-10T05:32:45;17.75;;;12.80;;
42598;SDS011;28225;42.714;23.860;2022-07-10T05:35:11;19.42;;;13.73;;
42598;SDS011;28225;42.714;23.860;2022-07-10T05:49:00;17.17;;;12.70;;
42598;SDS011;28225;42.714;23.860;2022-07-10T05:51:26;15.00;;;12.43;;
42598;SDS011;28225;42.714;23.860;2022-07-10T05:53:51;18.05;;;12.30;;
42598;SDS011;28225;42.714;23.860;2022-07-10T05:56:17;16.48;;;12.73;;
42598;SDS011;28225;42.714;23.860;2022-07-10T05:58:44;16.20;;;11.80;;
42598;SDS011;28225;42.714;23.860;2022-07-10T06:01:10;14.05;;;11.90;;
42598;SDS011;28225;42.714;23.860;2022-07-10T06:03:35;13.35;;;10.57;;
42598;SDS011;28225;42.714;23.860;2022-07-10T06:06:01;18.15;;;12.63;;
42598;SDS011;28225;42.714;23.860;2022-07-10T06:08:27;14.35;;;11.32;;
42598;SDS011;28225;42.714;23.860;2022-07-10T06:10:53;13.52;;;9.75;;
42598;SDS011;28225;42.714;23.860;2022-07-10T06:13:18;11.88;;;10.48;;
42598;SDS011;28225;42.714;23.860;2022-07-10T06:15:44;12.52;;;10.70;;
42598;SDS011;28225;42.714;23.860;2022-07-10T06:18:09;12.88;;;10.73;;
42598;SDS011;28225;42.714;23.860;2022-07-10T06:20:35;14.73;;;11.55;;
42598;SDS011;28225;42.714;23.860;2022-07-10T06:23:00;17.30;;;11.50;;
42598;SDS011;28225;42.714;23.860;2022-07-10T06:25:26;14.00;;;10.30;;
42598;SDS011;28225;42.714;23.860;2022-07-10T06:27:51;17.65;;;10.93;;
42598;SDS011;28225;42.714;23.860;2022-07-10T06:30:17;12.32;;;10.50;;
42598;SDS011;28225;42.714;23.860;2022-07-10T06:32:42;12.85;;;9.23;;
42598;SDS011;28225;42.714;23.860;2022-07-10T06:35:09;13.40;;;9.85;;
42598;SDS011;28225;42.714;23.860;2022-07-10T06:37:35;27.35;;;9.57;;
42598;SDS011;28225;42.714;23.860;2022-07-10T06:40:00;12.80;;;9.30;;
42598;SDS011;28225;42.714;23.860;2022-07-10T06:42:26;10.00;;;8.68;;
42598;SDS011;28225;42.714;23.860;2022-07-10T06:44:51;13.18;;;9.07;;
42598;SDS011;28225;42.714;23.860;2022-07-10T06:47:18;12.02;;;9.98;;
42598;SDS011;28225;42.714;23.860;2022-07-10T06:50:03;11.00;;;9.15;;
42598;SDS011;28225;42.714;23.860;2022-07-10T06:52:31;13.55;;;10.02;;
42598;SDS011;28225;42.714;23.860;2022-07-10T06:54:58;14.23;;;10.20;;
42598;SDS011;28225;42.714;23.860;2022-07-10T06:57:23;11.45;;;10.13;;
42598;SDS011;28225;42.714;23.860;2022-07-10T06:59:49;13.10;;;9.93;;
42598;SDS011;28225;42.714;23.860;2022-07-10T07:02:14;13.05;;;10.77;;
42598;SDS011;28225;42.714;23.860;2022-07-10T07:04:40;14.38;;;10.15;;
42598;SDS011;28225;42.714;23.860;2022-07-10T07:07:05;14.70;;;10.82;;
42598;SDS011;28225;42.714;23.860;2022-07-10T07:09:30;13.18;;;9.43;;
42598;SDS011;28225;42.714;23.860;2022-07-10T07:11:56;9.32;;;8.32;;
42598;SDS011;28225;42.714;23.860;2022-07-10T07:14:21;12.23;;;9.45;;
42598;SDS011;28225;42.714;23.860;2022-07-10T07:16:47;17.33;;;9.05;;
42598;SDS011;28225;42.714;23.860;2022-07-10T07:19:23;17.45;;;9.82;;
42598;SDS011;28225;42.714;23.860;2022-07-10T07:21:56;9.63;;;8.55;;
42598;SDS011;28225;42.714;23.860;2022-07-10T07:24:43;11.10;;;8.88;;
42598;SDS011;28225;42.714;23.860;2022-07-10T07:27:09;10.68;;;8.43;;
42598;SDS011;28225;42.714;23.860;2022-07-10T07:29:35;13.10;;;9.20;;
42598;SDS011;28225;42.714;23.860;2022-07-10T07:32:01;11.50;;;9.15;;
42598;SDS011;28225;42.714;23.860;2022-07-10T07:34:27;12.20;;;8.70;;
42598;SDS011;28225;42.714;23.860;2022-07-10T07:36:52;10.65;;;8.50;;
42598;SDS011;28225;42.714;23.860;2022-07-10T07:39:17;7.43;;;6.72;;
42598;SDS011;28225;42.714;23.860;2022-07-10T07:41:43;8.18;;;7.32;;
42598;SDS011;28225;42.714;23.860;2022-07-10T07:44:08;8.35;;;7.18;;
42598;SDS011;28225;42.714;23.860;2022-07-10T07:46:34;7.63;;;6.88;;
42598;SDS011;28225;42.714;23.860;2022-07-10T07:49:00;7.75;;;6.25;;
42598;SDS011;28225;42.714;23.860;2022-07-10T07:51:26;9.23;;;6.68;;
42598;SDS011;28225;42.714;23.860;2022-07-10T07:53:51;6.20;;;5.55;;
42598;SDS011;28225;42.714;23.860;2022-07-10T07:56:17;6.63;;;5.97;;
42598;SDS011;28225;42.714;23.860;2022-07-10T07:58:42;6.40;;;5.38;;
42598;SDS011;28225;42.714;23.860;2022-07-10T08:01:08;8.68;;;5.93;;
42598;SDS011;28225;42.714;23.860;2022-07-10T08:03:33;6.45;;;5.80;;
42598;SDS011;28225;42.714;23.860;2022-07-10T08:05:59;9.32;;;5.70;;
42598;SDS011;28225;42.714;23.860;2022-07-10T08:08:24;6.22;;;5.00;;
42598;SDS011;28225;42.714;23.860;2022-07-10T08:10:50;6.60;;;6.00;;
42598;SDS011;28225;42.714;23.860;2022-07-10T08:13:15;6.15;;;5.65;;
42598;SDS011;28225;42.714;23.860;2022-07-10T08:15:41;6.40;;;5.80;;
42598;SDS011;28225;42.714;23.860;2022-07-10T08:18:07;6.68;;;6.07;;
42598;SDS011;28225;42.714;23.860;2022-07-10T08:20:32;7.70;;;5.40;;
42598;SDS011;28225;42.714;23.860;2022-07-10T08:22:58;9.38;;;6.15;;
42598;SDS011;28225;42.714;23.860;2022-07-10T08:25:24;10.80;;;7.85;;
42598;SDS011;28225;42.714;23.860;2022-07-10T08:27:50;8.00;;;7.15;;
42598;SDS011;28225;42.714;23.860;2022-07-10T08:30:16;7.18;;;6.30;;
42598;SDS011;28225;42.714;23.860;2022-07-10T08:32:41;7.38;;;6.22;;
42598;SDS011;28225;42.714;23.860;2022-07-10T08:35:07;6.28;;;5.68;;
42598;SDS011;28225;42.714;23.860;2022-07-10T08:37:37;8.10;;;6.07;;
42598;SDS011;28225;42.714;23.860;2022-07-10T08:40:04;6.43;;;5.93;;
42598;SDS011;28225;42.714;23.860;2022-07-10T08:42:30;5.97;;;5.38;;
42598;SDS011;28225;42.714;23.860;2022-07-10T08:44:57;4.82;;;4.32;;
42598;SDS011;28225;42.714;23.860;2022-07-10T08:47:23;5.50;;;4.80;;
42598;SDS011;28225;42.714;23.860;2022-07-10T08:49:50;3.20;;;2.90;;
42598;SDS011;28225;42.714;23.860;2022-07-10T08:54:56;2.00;;;1.70;;
42598;SDS011;28225;42.714;23.860;2022-07-10T08:57:25;2.47;;;1.90;;
42598;SDS011;28225;42.714;23.860;2022-07-10T08:59:51;3.80;;;2.10;;
42598;SDS011;28225;42.714;23.860;2022-07-10T09:02:17;7.82;;;2.30;;
42598;SDS011;28225;42.714;23.860;2022-07-10T09:04:42;3.38;;;1.90;;
42598;SDS011;28225;42.714;23.860;2022-07-10T09:07:08;2.60;;;2.40;;
42598;SDS011;28225;42.714;23.860;2022-07-10T09:09:53;3.53;;;2.13;;
42598;SDS011;28225;42.714;23.860;2022-07-10T09:12:23;2.67;;;2.35;;
42598;SDS011;28225;42.714;23.860;2022-07-10T09:14:50;3.53;;;2.25;;
42598;SDS011;28225;42.714;23.860;2022-07-10T09:17:19;2.22;;;2.03;;
42598;SDS011;28225;42.714;23.860;2022-07-10T09:19:44;2.10;;;1.90;;
42598;SDS011;28225;42.714;23.860;2022-07-10T09:22:11;2.08;;;1.98;;
42598;SDS011;28225;42.714;23.860;2022-07-10T09:24:38;2.88;;;1.95;;
42598;SDS011;28225;42.714;23.860;2022-07-10T09:27:05;1.77;;;1.67;;
42598;SDS011;28225;42.714;23.860;2022-07-10T09:29:31;3.72;;;1.98;;
42598;SDS011;28225;42.714;23.860;2022-07-10T09:31:58;4.72;;;2.20;;
42598;SDS011;28225;42.714;23.860;2022-07-10T09:37:28;2.20;;;1.92;;
42598;SDS011;28225;42.714;23.860;2022-07-10T09:39:58;1.92;;;1.83;;
42598;SDS011;28225;42.714;23.860;2022-07-10T09:42:39;3.83;;;1.80;;
42598;SDS011;28225;42.714;23.860;2022-07-10T09:47:34;2.67;;;1.90;;
42598;SDS011;28225;42.714;23.860;2022-07-10T09:50:00;2.00;;;1.83;;
42598;SDS011;28225;42.714;23.860;2022-07-10T09:52:25;2.45;;;2.25;;
42598;SDS011;28225;42.714;23.860;2022-07-10T09:54:52;2.60;;;2.35;;
42598;SDS011;28225;42.714;23.860;2022-07-10T09:57:19;2.25;;;1.90;;
42598;SDS011;28225;42.714;23.860;2022-07-10T09:59:45;5.20;;;2.63;;
42598;SDS011;28225;42.714;23.860;2022-07-10T10:02:10;2.55;;;2.20;;
42598;SDS011;28225;42.714;23.860;2022-07-10T10:04:36;3.63;;;2.33;;
42598;SDS011;28225;42.714;23.860;2022-07-10T10:07:02;2.38;;;2.17;;
42598;SDS011;28225;42.714;23.860;2022-07-10T10:09:32;2.70;;;2.50;;
42598;SDS011;28225;42.714;23.860;2022-07-10T10:12:01;2.92;;;2.65;;
42598;SDS011;28225;42.714;23.860;2022-07-10T10:14:30;1.88;;;1.77;;
42598;SDS011;28225;42.714;23.860;2022-07-10T10:16:57;3.75;;;2.20;;
42598;SDS011;28225;42.714;23.860;2022-07-10T10:19:24;2.78;;;1.83;;
42598;SDS011;28225;42.714;23.860;2022-07-10T10:22:09;1.95;;;1.83;;
42598;SDS011;28225;42.714;23.860;2022-07-10T10:24:34;3.75;;;2.03;;
42598;SDS011;28225;42.714;23.860;2022-07-10T10:27:01;2.65;;;2.20;;
42598;SDS011;28225;42.714;23.860;2022-07-10T10:29:27;3.25;;;2.20;;
42598;SDS011;28225;42.714;23.860;2022-07-10T10:31:53;2.85;;;2.05;;
42598;SDS011;28225;42.714;23.860;2022-07-10T10:37:03;2.63;;;2.28;;
42598;SDS011;28225;42.714;23.860;2022-07-10T10:39:32;2.67;;;2.00;;
42598;SDS011;28225;42.714;23.860;2022-07-10T10:42:38;2.28;;;2.08;;
42598;SDS011;28225;42.714;23.860;2022-07-10T10:48:07;2.17;;;1.98;;
42598;SDS011;28225;42.714;23.860;2022-07-10T10:50:46;2.90;;;2.40;;
42598;SDS011;28225;42.714;23.860;2022-07-10T10:53:14;2.83;;;1.92;;
42598;SDS011;28225;42.714;23.860;2022-07-10T10:58:26;4.10;;;2.63;;
42598;SDS011;28225;42.714;23.860;2022-07-10T11:01:05;4.57;;;2.70;;
42598;SDS011;28225;42.714;23.860;2022-07-10T11:06:40;2.50;;;1.98;;
42598;SDS011;28225;42.714;23.860;2022-07-10T11:09:30;2.22;;;2.03;;
42598;SDS011;28225;42.714;23.860;2022-07-10T11:14:28;1.88;;;1.75;;
42598;SDS011;28225;42.714;23.860;2022-07-10T11:16:55;2.03;;;1.83;;
42598;SDS011;28225;42.714;23.860;2022-07-10T11:19:22;1.80;;;1.70;;
42598;SDS011;28225;42.714;23.860;2022-07-10T11:25:08;2.15;;;1.98;;
42598;SDS011;28225;42.714;23.860;2022-07-10T11:29:59;2.50;;;2.20;;
42598;SDS011;28225;42.714;23.860;2022-07-10T11:32:25;2.17;;;1.83;;
42598;SDS011;28225;42.714;23.860;2022-07-10T11:34:51;6.03;;;2.05;;
42598;SDS011;28225;42.714;23.860;2022-07-10T11:37:17;4.07;;;2.38;;
42598;SDS011;28225;42.714;23.860;2022-07-10T11:39:42;2.45;;;2.20;;
42598;SDS011;28225;42.714;23.860;2022-07-10T11:42:08;3.33;;;2.97;;
42598;SDS011;28225;42.714;23.860;2022-07-10T11:44:34;5.53;;;2.83;;
42598;SDS011;28225;42.714;23.860;2022-07-10T11:47:00;3.35;;;2.80;;
42598;SDS011;28225;42.714;23.860;2022-07-10T11:49:28;5.38;;;3.10;;
42598;SDS011;28225;42.714;23.860;2022-07-10T11:51:54;2.63;;;2.30;;
42598;SDS011;28225;42.714;23.860;2022-07-10T11:54:21;2.53;;;2.33;;
42598;SDS011;28225;42.714;23.860;2022-07-10T11:56:47;2.22;;;2.03;;
42598;SDS011;28225;42.714;23.860;2022-07-10T11:59:15;4.45;;;2.75;;
42598;SDS011;28225;42.714;23.860;2022-07-10T12:01:45;3.92;;;2.45;;
42598;SDS011;28225;42.714;23.860;2022-07-10T12:04:11;2.47;;;2.28;;
42598;SDS011;28225;42.714;23.860;2022-07-10T12:06:38;2.88;;;2.42;;
42598;SDS011;28225;42.714;23.860;2022-07-10T12:09:08;3.13;;;2.50;;
42598;SDS011;28225;42.714;23.860;2022-07-10T12:11:39;2.83;;;2.50;;
42598;SDS011;28225;42.714;23.860;2022-07-10T12:14:18;4.85;;;2.50;;
42598;SDS011;28225;42.714;23.860;2022-07-10T12:16:46;2.38;;;2.00;;
42598;SDS011;28225;42.714;23.860;2022-07-10T12:19:13;2.95;;;2.50;;
42598;SDS011;28225;42.714;23.860;2022-07-10T12:21:43;2.10;;;1.90;;
42598;SDS011;28225;42.714;23.860;2022-07-10T12:24:11;3.33;;;2.10;;
42598;SDS011;28225;42.714;23.860;2022-07-10T12:26:38;2.13;;;1.92;;
42598;SDS011;28225;42.714;23.860;2022-07-10T12:29:05;3.25;;;1.90;;
42598;SDS011;28225;42.714;23.860;2022-07-10T12:31:34;6.97;;;2.95;;
42598;SDS011;28225;42.714;23.860;2022-07-10T12:34:03;2.88;;;1.92;;
42598;SDS011;28225;42.714;23.860;2022-07-10T12:36:43;17.95;;;4.32;;
42598;SDS011;28225;42.714;23.860;2022-07-10T12:39:17;6.95;;;2.78;;
42598;SDS011;28225;42.714;23.860;2022-07-10T12:41:59;1.58;;;1.48;;
42598;SDS011;28225;42.714;23.860;2022-07-10T12:44:36;16.17;;;4.50;;
42598;SDS011;28225;42.714;23.860;2022-07-10T12:47:04;3.17;;;2.10;;
42598;SDS011;28225;42.714;23.860;2022-07-10T12:49:53;2.88;;;1.98;;
42598;SDS011;28225;42.714;23.860;2022-07-10T12:52:20;7.70;;;4.32;;
42598;SDS011;28225;42.714;23.860;2022-07-10T12:55:04;3.55;;;2.33;;
42598;SDS011;28225;42.714;23.860;2022-07-10T12:57:31;4.75;;;2.22;;
42598;SDS011;28225;42.714;23.860;2022-07-10T13:00:02;2.90;;;1.83;;
42598;SDS011;28225;42.714;23.860;2022-07-10T13:02:31;2.65;;;1.73;;
42598;SDS011;28225;42.714;23.860;2022-07-10T13:04:58;2.30;;;2.10;;
42598;SDS011;28225;42.714;23.860;2022-07-10T13:07:30;4.38;;;1.98;;
42598;SDS011;28225;42.714;23.860;2022-07-10T13:09:59;2.00;;;1.77;;
42598;SDS011;28225;42.714;23.860;2022-07-10T13:12:28;2.20;;;2.00;;
42598;SDS011;28225;42.714;23.860;2022-07-10T13:14:54;2.20;;;1.60;;
42598;SDS011;28225;42.714;23.860;2022-07-10T13:17:20;3.92;;;2.00;;
42598;SDS011;28225;42.714;23.860;2022-07-10T13:19:45;3.42;;;1.73;;
42598;SDS011;28225;42.714;23.860;2022-07-10T13:22:11;1.80;;;1.70;;
42598;SDS011;28225;42.714;23.860;2022-07-10T13:24:37;3.58;;;1.77;;
42598;SDS011;28225;42.714;23.860;2022-07-10T13:27:02;4.80;;;2.00;;
42598;SDS011;28225;42.714;23.860;2022-07-10T13:29:28;16.25;;;3.80;;
42598;SDS011;28225;42.714;23.860;2022-07-10T13:31:54;3.80;;;2.03;;
42598;SDS011;28225;42.714;23.860;2022-07-10T13:34:19;2.22;;;1.63;;
42598;SDS011;28225;42.714;23.860;2022-07-10T13:36:45;2.38;;;1.60;;
42598;SDS011;28225;42.714;23.860;2022-07-10T13:39:10;4.25;;;2.00;;
42598;SDS011;28225;42.714;23.860;2022-07-10T13:41:36;2.95;;;2.08;;
42598;SDS011;28225;42.714;23.860;2022-07-10T13:44:01;2.55;;;1.90;;
42598;SDS011;28225;42.714;23.860;2022-07-10T13:46:27;2.40;;;2.17;;
42598;SDS011;28225;42.714;23.860;2022-07-10T13:48:53;1.80;;;1.70;;
42598;SDS011;28225;42.714;23.860;2022-07-10T13:51:18;2.75;;;1.48;;
42598;SDS011;28225;42.714;23.860;2022-07-10T13:53:43;1.77;;;1.67;;
42598;SDS011;28225;42.714;23.860;2022-07-10T13:56:09;2.65;;;1.70;;
42598;SDS011;28225;42.714;23.860;2022-07-10T13:58:35;3.38;;;1.73;;
42598;SDS011;28225;42.714;23.860;2022-07-10T14:01:01;2.47;;;1.77;;
42598;SDS011;28225;42.714;23.860;2022-07-10T14:03:29;3.80;;;2.53;;
42598;SDS011;28225;42.714;23.860;2022-07-10T14:05:55;2.22;;;2.03;;
42598;SDS011;28225;42.714;23.860;2022-07-10T14:08:21;2.80;;;2.22;;
42598;SDS011;28225;42.714;23.860;2022-07-10T14:10:46;2.95;;;1.48;;
42598;SDS011;28225;42.714;23.860;2022-07-10T14:13:12;2.20;;;1.80;;
42598;SDS011;28225;42.714;23.860;2022-07-10T14:15:37;2.40;;;2.20;;
42598;SDS011;28225;42.714;23.860;2022-07-10T14:18:03;4.30;;;2.63;;
42598;SDS011;28225;42.714;23.860;2022-07-10T14:20:29;12.40;;;5.20;;
42598;SDS011;28225;42.714;23.860;2022-07-10T14:23:16;3.28;;;2.42;;
42598;SDS011;28225;42.714;23.860;2022-07-10T14:25:41;12.45;;;3.80;;
42598;SDS011;28225;42.714;23.860;2022-07-10T14:28:07;31.63;;;5.88;;
42598;SDS011;28225;42.714;23.860;2022-07-10T14:30:32;8.35;;;2.80;;
42598;SDS011;28225;42.714;23.860;2022-07-10T14:32:58;8.63;;;3.08;;
42598;SDS011;28225;42.714;23.860;2022-07-10T14:35:24;6.43;;;2.28;;
42598;SDS011;28225;42.714;23.860;2022-07-10T14:37:49;2.20;;;2.00;;
42598;SDS011;28225;42.714;23.860;2022-07-10T14:40:15;2.83;;;2.35;;
42598;SDS011;28225;42.714;23.860;2022-07-10T14:42:40;3.65;;;2.08;;
42598;SDS011;28225;42.714;23.860;2022-07-10T14:45:06;2.08;;;1.80;;
42598;SDS011;28225;42.714;23.860;2022-07-10T14:47:32;4.25;;;1.70;;
42598;SDS011;28225;42.714;23.860;2022-07-10T14:49:58;1.90;;;1.67;;
42598;SDS011;28225;42.714;23.860;2022-07-10T14:52:23;2.20;;;1.80;;
42598;SDS011;28225;42.714;23.860;2022-07-10T14:54:52;2.08;;;1.70;;
42598;SDS011;28225;42.714;23.860;2022-07-10T14:57:18;2.78;;;1.58;;
42598;SDS011;28225;42.714;23.860;2022-07-10T14:59:43;2.00;;;1.90;;
42598;SDS011;28225;42.714;23.860;2022-07-10T15:02:09;2.65;;;1.60;;
42598;SDS011;28225;42.714;23.860;2022-07-10T15:04:34;4.68;;;1.85;;
42598;SDS011;28225;42.714;23.860;2022-07-10T15:06:59;4.90;;;2.08;;
42598;SDS011;28225;42.714;23.860;2022-07-10T15:09:25;2.25;;;2.05;;
42598;SDS011;28225;42.714;23.860;2022-07-10T15:11:50;4.53;;;3.53;;
42598;SDS011;28225;42.714;23.860;2022-07-10T15:14:18;4.82;;;2.33;;
42598;SDS011;28225;42.714;23.860;2022-07-10T15:16:43;3.35;;;1.95;;